createdAt,value
2023-04-25T00:01:32.740Z,7.40
2023-04-25T00:03:59.418Z,7.40
2023-04-25T00:06:26.120Z,7.40
2023-04-25T00:08:53.311Z,7.50
2023-04-25T00:11:19.895Z,7.50
2023-04-25T00:13:46.588Z,7.40
2023-04-25T00:16:13.425Z,7.40
2023-04-25T00:18:39.998Z,7.40
2023-04-25T00:21:06.578Z,7.40
2023-04-25T00:23:33.355Z,7.40
2023-04-25T00:25:59.914Z,7.40
2023-04-25T00:28:26.488Z,7.40
2023-04-25T00:30:53.078Z,7.30
2023-04-25T00:33:19.619Z,7.30
2023-04-25T00:35:46.203Z,7.30
2023-04-25T00:38:12.802Z,7.30
2023-04-25T00:40:39.386Z,7.30
2023-04-25T00:43:05.929Z,7.30
2023-04-25T00:45:32.517Z,7.30
2023-04-25T00:47:59.292Z,7.30
2023-04-25T00:50:25.922Z,7.30
2023-04-25T00:52:53.117Z,7.30
2023-04-25T00:55:20.824Z,7.30
2023-04-25T00:57:47.716Z,7.30
2023-04-25T01:00:14.977Z,7.30
2023-04-25T01:02:42.305Z,7.30
2023-04-25T01:05:09.593Z,7.30
2023-04-25T01:07:36.251Z,7.30
2023-04-25T01:10:03.104Z,7.30
2023-04-25T01:12:29.902Z,7.30
2023-04-25T01:14:56.553Z,7.30
2023-04-25T01:17:23.229Z,7.30
2023-04-25T01:19:50.184Z,7.30
2023-04-25T01:22:16.946Z,7.30
2023-04-25T01:24:44.151Z,7.40
2023-04-25T01:27:11.646Z,7.40
2023-04-25T01:29:38.470Z,7.50
2023-04-25T01:32:06.691Z,7.50
2023-04-25T01:34:33.453Z,7.50
2023-04-25T01:37:01.501Z,7.50
2023-04-25T01:39:28.416Z,7.50
2023-04-25T01:41:57.242Z,7.40
2023-04-25T01:44:24.142Z,7.40
2023-04-25T01:46:50.800Z,7.30
2023-04-25T01:49:17.367Z,7.20
2023-04-25T01:51:44.450Z,7.20
2023-04-25T01:54:11.414Z,7.30
2023-04-25T01:56:40.748Z,7.20
2023-04-25T01:59:07.668Z,7.20
2023-04-25T02:01:34.326Z,7.10
2023-04-25T02:04:01.237Z,7.20
2023-04-25T02:06:28.385Z,7.10
2023-04-25T02:08:54.988Z,7.10
2023-04-25T02:11:21.536Z,7.10
2023-04-25T02:13:48.381Z,7.10
2023-04-25T02:16:15.205Z,7.00
2023-04-25T02:18:41.824Z,7.00
2023-04-25T02:21:08.389Z,7.00
2023-04-25T02:23:35.086Z,7.00
2023-04-25T02:26:01.658Z,7.00
2023-04-25T02:28:28.235Z,7.00
2023-04-25T02:30:54.894Z,7.00
2023-04-25T02:33:21.525Z,7.00
2023-04-25T02:35:48.341Z,6.90
2023-04-25T02:38:14.957Z,6.90
2023-04-25T02:40:41.686Z,6.90
2023-04-25T02:43:08.525Z,6.90
2023-04-25T02:45:35.117Z,6.80
2023-04-25T02:48:02.246Z,6.80
2023-04-25T02:50:29.142Z,6.80
2023-04-25T02:52:55.714Z,6.90
2023-04-25T02:55:22.289Z,7.00
2023-04-25T02:57:49.108Z,7.00
2023-04-25T03:00:15.850Z,7.10
2023-04-25T03:02:42.506Z,7.10
2023-04-25T03:05:09.318Z,7.10
2023-04-25T03:07:35.874Z,7.20
2023-04-25T03:10:02.441Z,7.20
2023-04-25T03:12:29.286Z,7.20
2023-04-25T03:14:55.865Z,7.10
2023-04-25T03:17:22.478Z,7.10
2023-04-25T03:19:49.188Z,7.20
2023-04-25T03:22:15.987Z,7.10
2023-04-25T03:24:42.541Z,7.20
2023-04-25T03:27:09.705Z,7.20
2023-04-25T03:29:36.252Z,7.20
2023-04-25T03:32:02.924Z,7.20
2023-04-25T03:34:29.621Z,7.30
2023-04-25T03:36:56.288Z,7.20
2023-04-25T03:39:22.934Z,7.20
2023-04-25T03:41:49.536Z,7.20
2023-04-25T03:44:16.114Z,7.20
2023-04-25T03:46:42.664Z,7.20
2023-04-25T03:49:09.354Z,7.20
2023-04-25T03:51:35.903Z,7.20
2023-04-25T03:54:02.488Z,7.10
2023-04-25T03:56:29.043Z,7.10
2023-04-25T03:58:55.584Z,7.00
2023-04-25T04:01:22.158Z,7.10
2023-04-25T04:03:48.918Z,7.10
2023-04-25T04:06:15.692Z,7.20
2023-04-25T04:08:42.242Z,7.20
2023-04-25T04:11:08.890Z,7.10
2023-04-25T04:13:35.458Z,7.10
2023-04-25T04:16:02.183Z,7.20
2023-04-25T04:18:28.788Z,7.10
2023-04-25T04:20:55.345Z,7.10
2023-04-25T04:23:22.003Z,7.20
2023-04-25T04:25:48.929Z,7.20
2023-04-25T04:28:15.627Z,7.10
2023-04-25T04:30:42.284Z,7.10
2023-04-25T04:33:09.670Z,7.10
2023-04-25T04:35:36.362Z,7.10
2023-04-25T04:38:02.927Z,7.10
2023-04-25T04:40:29.534Z,7.10
2023-04-25T04:42:56.077Z,7.10
2023-04-25T04:45:22.616Z,7.10
2023-04-25T04:47:49.236Z,7.10
2023-04-25T04:50:15.872Z,7.10
2023-04-25T04:52:43.128Z,7.20
2023-04-25T04:55:09.882Z,7.20
2023-04-25T04:57:36.460Z,7.20
2023-04-25T05:00:03.437Z,7.20
2023-04-25T05:02:30.165Z,7.20
2023-04-25T05:04:57.822Z,7.10
2023-04-25T05:07:24.564Z,7.10
2023-04-25T05:09:51.151Z,7.00
2023-04-25T05:12:17.690Z,7.00
2023-04-25T05:14:44.228Z,7.00
2023-04-25T05:17:10.811Z,7.10
2023-04-25T05:19:37.419Z,7.00
2023-04-25T05:22:04.022Z,7.10
2023-04-25T05:24:31.001Z,7.10
2023-04-25T05:26:57.774Z,7.00
2023-04-25T05:29:24.352Z,7.00
2023-04-25T05:31:50.989Z,7.00
2023-04-25T05:34:17.621Z,6.90
2023-04-25T05:36:44.220Z,6.90
2023-04-25T05:39:10.885Z,6.80
2023-04-25T05:41:37.463Z,6.90
2023-04-25T05:44:04.167Z,6.80
2023-04-25T05:46:30.921Z,6.80
2023-04-25T05:48:57.575Z,6.90
2023-04-25T05:51:24.196Z,6.80
2023-04-25T05:53:50.962Z,6.90
2023-04-25T05:56:17.709Z,6.90
2023-04-25T05:58:44.239Z,6.90
2023-04-25T06:01:10.834Z,7.00
2023-04-25T06:03:37.542Z,6.90
2023-04-25T06:06:04.659Z,6.90
2023-04-25T06:08:31.614Z,6.90
2023-04-25T06:10:58.164Z,7.00
2023-04-25T06:13:24.852Z,7.00
2023-04-25T06:15:51.490Z,7.10
2023-04-25T06:18:18.223Z,7.10
2023-04-25T06:20:44.783Z,7.20
2023-04-25T06:23:11.357Z,7.30
2023-04-25T06:25:37.947Z,7.30
2023-04-25T06:28:04.651Z,7.50
2023-04-25T06:30:31.300Z,7.60
2023-04-25T06:32:57.886Z,7.50
2023-04-25T06:35:24.435Z,7.50
2023-04-25T06:37:51.062Z,7.50
2023-04-25T06:40:17.738Z,7.60
2023-04-25T06:42:44.378Z,7.60
2023-04-25T06:45:11.376Z,7.70
2023-04-25T06:47:38.076Z,7.70
2023-04-25T06:50:05.404Z,7.70
2023-04-25T06:52:32.132Z,7.80
2023-04-25T06:54:58.831Z,7.90
2023-04-25T06:57:25.400Z,8.20
2023-04-25T06:59:51.989Z,8.40
2023-04-25T07:02:19.215Z,8.70
2023-04-25T07:04:45.883Z,8.70
2023-04-25T07:07:12.594Z,8.80
2023-04-25T07:09:39.172Z,8.70
2023-04-25T07:12:05.987Z,8.90
2023-04-25T07:14:32.571Z,8.90
2023-04-25T07:16:59.195Z,8.90
2023-04-25T07:19:25.853Z,8.70
2023-04-25T07:21:54.055Z,8.70
2023-04-25T07:24:20.826Z,8.60
2023-04-25T07:26:47.452Z,8.60
2023-04-25T07:29:14.142Z,8.60
2023-04-25T07:31:40.750Z,8.60
2023-04-25T07:34:07.351Z,8.60
2023-04-25T07:36:34.269Z,8.60
2023-04-25T07:39:00.859Z,8.70
2023-04-25T07:41:27.384Z,8.80
2023-04-25T07:43:53.945Z,8.90
2023-04-25T07:46:20.689Z,9.20
2023-04-25T07:48:47.313Z,9.40
2023-04-25T07:51:13.911Z,9.60
2023-04-25T07:53:40.470Z,9.80
2023-04-25T07:56:07.410Z,9.90
2023-04-25T07:58:33.972Z,10.10
2023-04-25T08:01:00.505Z,10.10
2023-04-25T08:03:27.485Z,10.20
2023-04-25T08:05:54.574Z,10.40
2023-04-25T08:08:21.224Z,10.50
2023-04-25T08:10:47.971Z,10.60
2023-04-25T08:13:14.649Z,10.70
2023-04-25T08:15:41.424Z,11.10
2023-04-25T08:18:08.131Z,11.30
2023-04-25T08:20:34.804Z,11.20
2023-04-25T08:23:01.363Z,11.10
2023-04-25T08:25:28.128Z,11.10
2023-04-25T08:27:54.716Z,11.00
2023-04-25T08:30:21.360Z,11.20
2023-04-25T08:32:47.976Z,11.40
2023-04-25T08:35:14.587Z,11.50
2023-04-25T08:37:41.189Z,11.70
2023-04-25T08:40:12.208Z,11.70
2023-04-25T08:42:39.942Z,11.80
2023-04-25T08:45:07.345Z,12.00
2023-04-25T08:47:34.981Z,12.30
2023-04-25T08:50:04.335Z,12.50
2023-04-25T08:52:37.169Z,12.60
2023-04-25T08:55:05.789Z,12.40
2023-04-25T08:57:34.183Z,12.20
2023-04-25T09:00:02.508Z,12.20
2023-04-25T09:02:29.755Z,12.20
2023-04-25T09:04:57.084Z,12.40
2023-04-25T09:07:23.752Z,12.60
2023-04-25T09:09:50.349Z,12.50
2023-04-25T09:12:19.378Z,12.50
2023-04-25T09:15:03.321Z,12.70
2023-04-25T09:17:29.936Z,12.60
2023-04-25T09:20:05.781Z,12.60
2023-04-25T09:22:32.371Z,12.50
2023-04-25T09:25:02.815Z,12.20
2023-04-25T09:27:29.452Z,11.90
2023-04-25T09:30:00.007Z,11.80
2023-04-25T09:32:27.034Z,11.70
2023-04-25T09:34:55.759Z,11.50
2023-04-25T09:37:23.365Z,11.30
2023-04-25T09:39:52.212Z,11.10
2023-04-25T09:42:18.836Z,11.00
2023-04-25T09:44:47.012Z,11.10
2023-04-25T09:47:15.492Z,11.00
2023-04-25T09:49:43.985Z,11.10
2023-04-25T09:52:18.723Z,11.00
2023-04-25T09:54:46.479Z,11.20
2023-04-25T09:57:18.794Z,11.20
2023-04-25T09:59:50.744Z,11.20
2023-04-25T10:02:19.973Z,11.30
2023-04-25T10:04:49.583Z,11.30
2023-04-25T10:07:17.610Z,11.20
2023-04-25T10:09:47.808Z,11.00
2023-04-25T10:12:14.791Z,10.90
2023-04-25T10:14:42.310Z,10.80
2023-04-25T10:17:11.398Z,10.70
2023-04-25T10:19:38.442Z,10.40
2023-04-25T10:22:23.135Z,10.40
2023-04-25T10:24:51.707Z,10.30
2023-04-25T10:27:18.498Z,10.00
2023-04-25T10:29:45.059Z,9.80
2023-04-25T10:32:11.839Z,9.50
2023-04-25T10:34:42.771Z,9.40
2023-04-25T10:37:12.925Z,9.30
2023-04-25T10:39:43.156Z,9.00
2023-04-25T10:42:09.826Z,8.90
2023-04-25T10:44:38.716Z,8.80
2023-04-25T10:47:08.181Z,9.00
2023-04-25T10:49:36.909Z,9.00
2023-04-25T10:52:29.124Z,9.10
2023-04-25T10:54:58.912Z,9.50
2023-04-25T10:57:45.569Z,9.80
2023-04-25T11:00:19.352Z,9.90
2023-04-25T11:03:00.059Z,10.00
2023-04-25T11:05:33.051Z,10.10
2023-04-25T11:08:07.671Z,10.30
2023-04-25T11:10:35.234Z,10.50
2023-04-25T11:13:02.092Z,10.70
2023-04-25T11:15:29.289Z,10.70
2023-04-25T11:17:56.603Z,10.80
2023-04-25T11:20:26.289Z,10.80
2023-04-25T11:22:52.986Z,11.10
2023-04-25T11:25:19.576Z,11.20
2023-04-25T11:27:53.680Z,11.10
2023-04-25T11:30:21.561Z,11.10
2023-04-25T11:32:48.318Z,11.20
2023-04-25T11:35:15.051Z,11.10
2023-04-25T11:37:42.662Z,10.90
2023-04-25T11:40:09.674Z,10.70
2023-04-25T11:42:43.992Z,10.60
2023-04-25T11:45:10.605Z,10.20
2023-04-25T11:47:37.593Z,9.70
2023-04-25T11:50:05.952Z,9.10
2023-04-25T11:52:45.178Z,9.00
2023-04-25T11:55:21.510Z,8.70
2023-04-25T11:57:49.848Z,8.30
2023-04-25T12:00:21.929Z,8.20
2023-04-25T12:02:56.315Z,8.00
2023-04-25T12:05:33.418Z,7.90
2023-04-25T12:08:17.155Z,7.80
2023-04-25T12:10:46.080Z,7.80
2023-04-25T12:13:23.803Z,7.70
2023-04-25T12:15:50.899Z,7.70
2023-04-25T12:18:29.655Z,7.60
2023-04-25T12:20:56.505Z,7.60
2023-04-25T12:23:27.452Z,7.70
2023-04-25T12:25:54.069Z,7.80
2023-04-25T12:28:23.112Z,7.70
2023-04-25T12:31:02.444Z,7.70
2023-04-25T12:33:30.860Z,7.50
2023-04-25T12:35:58.173Z,7.60
2023-04-25T12:38:30.003Z,7.50
2023-04-25T12:40:56.948Z,7.60
2023-04-25T12:43:23.789Z,7.80
2023-04-25T12:45:51.415Z,7.80
2023-04-25T12:48:18.534Z,8.00
2023-04-25T12:50:45.460Z,7.90
2023-04-25T12:53:12.160Z,7.80
2023-04-25T12:55:38.776Z,7.70
2023-04-25T12:58:05.352Z,7.60
2023-04-25T13:00:32.074Z,7.70
2023-04-25T13:02:58.867Z,7.60
2023-04-25T13:05:26.527Z,7.60
2023-04-25T13:07:53.095Z,7.60
2023-04-25T13:10:19.719Z,7.60
2023-04-25T13:12:46.252Z,7.60
2023-04-25T13:15:12.843Z,7.60
2023-04-25T13:17:39.730Z,7.50
2023-04-25T13:20:07.136Z,7.50
2023-04-25T13:22:33.823Z,7.40
2023-04-25T13:25:00.436Z,7.40
2023-04-25T13:27:26.988Z,7.50
2023-04-25T13:29:53.579Z,7.40
2023-04-25T13:32:20.362Z,7.30
2023-04-25T13:34:47.043Z,7.20
2023-04-25T13:37:13.647Z,7.20
2023-04-25T13:39:40.349Z,7.20
2023-04-25T13:42:06.900Z,7.20
2023-04-25T13:44:33.458Z,7.10
2023-04-25T13:47:00.047Z,7.20
2023-04-25T13:49:26.646Z,7.10
2023-04-25T13:51:53.238Z,7.30
2023-04-25T13:54:19.820Z,7.20
2023-04-25T13:56:46.400Z,7.30
2023-04-25T13:59:12.969Z,7.30
2023-04-25T14:01:39.811Z,7.30
2023-04-25T14:04:06.568Z,7.40
2023-04-25T14:06:33.802Z,7.50
2023-04-25T14:09:00.360Z,7.60
2023-04-25T14:11:26.946Z,7.60
2023-04-25T14:13:53.689Z,7.80
2023-04-25T14:16:20.752Z,7.90
2023-04-25T14:18:47.333Z,7.90
2023-04-25T14:21:13.912Z,8.00
2023-04-25T14:23:40.464Z,8.10
2023-04-25T14:26:07.053Z,8.10
2023-04-25T14:28:33.663Z,8.10
2023-04-25T14:31:00.339Z,8.10
2023-04-25T14:33:26.919Z,8.10
2023-04-25T14:35:53.550Z,8.00
2023-04-25T14:38:20.120Z,7.80
2023-04-25T14:40:46.673Z,7.80
2023-04-25T14:43:13.244Z,7.80
2023-04-25T14:45:39.894Z,7.80
2023-04-25T14:48:06.619Z,7.70
2023-04-25T14:50:33.500Z,7.80
2023-04-25T14:53:00.143Z,8.00
2023-04-25T14:55:29.860Z,8.00
2023-04-25T14:57:57.536Z,8.20
2023-04-25T15:00:24.438Z,8.20
2023-04-25T15:02:51.149Z,8.20
2023-04-25T15:05:18.281Z,8.10
2023-04-25T15:07:44.875Z,8.20
2023-04-25T15:10:11.808Z,8.20
2023-04-25T15:12:38.929Z,8.00
2023-04-25T15:15:05.977Z,8.00
2023-04-25T15:17:32.560Z,8.10
2023-04-25T15:19:59.138Z,8.10
2023-04-25T15:22:25.727Z,8.10
2023-04-25T15:24:52.268Z,8.00
2023-04-25T15:27:18.848Z,7.90
2023-04-25T15:29:45.372Z,7.90
2023-04-25T15:32:11.958Z,7.90
2023-04-25T15:34:38.566Z,7.90
2023-04-25T15:37:05.128Z,7.80
2023-04-25T15:39:31.903Z,7.90
2023-04-25T15:41:58.531Z,7.90
2023-04-25T15:44:25.619Z,8.00
2023-04-25T15:46:54.975Z,8.10
2023-04-25T15:49:21.778Z,8.10
2023-04-25T15:51:48.863Z,8.10
2023-04-25T15:54:15.431Z,8.10
2023-04-25T15:56:41.984Z,8.20
2023-04-25T15:59:08.539Z,8.20
2023-04-25T16:01:35.233Z,8.20
2023-04-25T16:04:02.111Z,8.30
2023-04-25T16:06:28.916Z,8.40
2023-04-25T16:08:55.677Z,8.30
2023-04-25T16:11:22.348Z,8.50
2023-04-25T16:13:49.225Z,8.50
2023-04-25T16:16:16.316Z,8.50
2023-04-25T16:18:43.021Z,8.50
2023-04-25T16:21:09.817Z,8.50
2023-04-25T16:23:36.385Z,8.50
2023-04-25T16:26:02.984Z,8.60
2023-04-25T16:28:29.549Z,8.70
2023-04-25T16:30:56.406Z,8.80
2023-04-25T16:33:23.021Z,8.70
2023-04-25T16:35:49.562Z,8.70
2023-04-25T16:38:16.120Z,8.70
2023-04-25T16:40:42.722Z,8.60
2023-04-25T16:43:12.557Z,8.70
2023-04-25T16:45:39.152Z,8.70
2023-04-25T16:48:05.803Z,8.60
2023-04-25T16:50:32.479Z,8.60
2023-04-25T16:52:59.021Z,8.70
2023-04-25T16:55:25.613Z,8.50
2023-04-25T16:57:52.172Z,8.40
2023-04-25T17:00:19.052Z,8.30
2023-04-25T17:02:45.765Z,8.20
2023-04-25T17:05:12.420Z,8.10
2023-04-25T17:07:39.030Z,8.00
2023-04-25T17:10:06.038Z,7.90
2023-04-25T17:12:32.857Z,7.90
2023-04-25T17:14:59.393Z,7.80
2023-04-25T17:17:25.994Z,7.80
2023-04-25T17:19:52.650Z,7.80
2023-04-25T17:22:19.273Z,7.70
2023-04-25T17:24:46.125Z,7.80
2023-04-25T17:27:12.692Z,7.80
2023-04-25T17:29:39.280Z,7.70
2023-04-25T17:32:05.943Z,7.70
2023-04-25T17:34:32.528Z,7.70
2023-04-25T17:36:59.067Z,7.60
2023-04-25T17:39:25.648Z,7.50
2023-04-25T17:41:52.231Z,7.60
2023-04-25T17:44:18.781Z,7.60
2023-04-25T17:46:45.395Z,7.70
2023-04-25T17:49:11.948Z,7.60
2023-04-25T17:51:38.592Z,7.50
2023-04-25T17:54:05.241Z,7.60
2023-04-25T17:56:35.215Z,7.50
2023-04-25T17:59:01.773Z,7.50
2023-04-25T18:01:28.522Z,7.40
2023-04-25T18:03:55.237Z,7.40
2023-04-25T18:06:22.002Z,7.30
2023-04-25T18:08:48.928Z,7.40
2023-04-25T18:11:15.866Z,7.40
2023-04-25T18:13:42.428Z,7.40
2023-04-25T18:16:09.197Z,7.40
2023-04-25T18:18:36.240Z,7.40
2023-04-25T18:21:03.156Z,7.40
2023-04-25T18:23:29.952Z,7.40
2023-04-25T18:25:56.492Z,7.30
2023-04-25T18:28:23.089Z,7.30
2023-04-25T18:30:49.784Z,7.30
2023-04-25T18:33:16.514Z,7.30
2023-04-25T18:35:55.281Z,7.30
2023-04-25T18:38:35.528Z,7.30
2023-04-25T18:41:26.928Z,7.30
2023-04-25T18:43:50.367Z,7.30
2023-04-25T18:46:17.562Z,7.20
2023-04-25T18:48:44.481Z,7.20
2023-04-25T18:51:11.138Z,7.10
2023-04-25T18:53:37.773Z,7.10
2023-04-25T18:56:04.526Z,7.10
2023-04-25T18:58:31.135Z,7.10
2023-04-25T19:00:57.804Z,7.20
2023-04-25T19:03:24.613Z,7.20
2023-04-25T19:05:51.469Z,7.20
2023-04-25T19:08:18.175Z,7.20
2023-04-25T19:10:44.828Z,7.20
2023-04-25T19:13:11.394Z,7.20
2023-04-25T19:15:37.984Z,7.20
2023-04-25T19:18:04.953Z,7.10
2023-04-25T19:20:33.383Z,7.10
2023-04-25T19:22:59.977Z,7.10
2023-04-25T19:25:26.574Z,7.20
2023-04-25T19:27:53.276Z,7.20
2023-04-25T19:30:20.046Z,7.10
2023-04-25T19:32:46.686Z,7.10
2023-04-25T19:35:13.473Z,7.10
2023-04-25T19:37:40.130Z,7.10
2023-04-25T19:40:07.514Z,7.10
2023-04-25T19:42:34.171Z,7.00
2023-04-25T19:45:00.782Z,7.00
2023-04-25T19:47:27.376Z,7.10
2023-04-25T19:49:54.106Z,7.00
2023-04-25T19:52:20.735Z,7.00
2023-04-25T19:54:47.294Z,7.10
2023-04-25T19:57:13.923Z,7.10
2023-04-25T19:59:41.086Z,7.00
2023-04-25T20:02:08.340Z,7.00
2023-04-25T20:04:35.129Z,7.00
2023-04-25T20:07:02.184Z,6.90
2023-04-25T20:09:28.754Z,6.90
2023-04-25T20:11:55.338Z,7.00
2023-04-25T20:14:21.920Z,7.00
2023-04-25T20:16:48.608Z,7.00
2023-04-25T20:19:15.200Z,7.10
2023-04-25T20:21:41.783Z,7.00
2023-04-25T20:24:08.409Z,7.10
2023-04-25T20:26:34.995Z,7.10
2023-04-25T20:29:01.602Z,7.10
2023-04-25T20:31:29.107Z,7.00
2023-04-25T20:33:55.731Z,7.00
2023-04-25T20:36:22.272Z,6.90
2023-04-25T20:38:48.799Z,6.90
2023-04-25T20:41:15.752Z,6.90
2023-04-25T20:43:42.412Z,6.90
2023-04-25T20:46:09.032Z,6.90
2023-04-25T20:48:35.678Z,6.90
2023-04-25T20:51:02.337Z,6.90
2023-04-25T20:53:28.901Z,6.80
2023-04-25T20:55:55.513Z,6.80
2023-04-25T20:58:22.095Z,6.80
2023-04-25T21:00:48.697Z,6.80
2023-04-25T21:03:15.502Z,6.80
2023-04-25T21:05:42.137Z,6.80
2023-04-25T21:08:08.711Z,6.80
2023-04-25T21:10:37.314Z,6.70
2023-04-25T21:13:04.141Z,6.70
2023-04-25T21:15:30.786Z,6.70
2023-04-25T21:17:57.462Z,6.80
2023-04-25T21:20:24.112Z,6.70
2023-04-25T21:22:53.930Z,6.80
2023-04-25T21:25:24.095Z,6.80
2023-04-25T21:27:51.986Z,6.80
2023-04-25T21:30:22.923Z,6.80
2023-04-25T21:32:50.482Z,6.80
2023-04-25T21:35:17.777Z,6.80
2023-04-25T21:37:44.849Z,6.80
2023-04-25T21:40:12.216Z,6.80
2023-04-25T21:42:38.851Z,6.80
2023-04-25T21:45:06.956Z,6.80
2023-04-25T21:47:34.170Z,6.70
2023-04-25T21:50:01.209Z,6.80
2023-04-25T21:52:28.443Z,6.80
2023-04-25T21:54:55.826Z,6.80
2023-04-25T21:57:22.409Z,6.70
2023-04-25T21:59:49.109Z,6.70
2023-04-25T22:02:15.846Z,6.70
2023-04-25T22:04:42.940Z,6.60
2023-04-25T22:07:09.977Z,6.60
2023-04-25T22:09:47.305Z,6.60
2023-04-25T22:12:18.244Z,6.60
2023-04-25T22:14:44.825Z,6.60
2023-04-25T22:17:11.373Z,6.60
2023-04-25T22:19:37.927Z,6.60
2023-04-25T22:22:04.533Z,6.50
2023-04-25T22:24:31.102Z,6.60
2023-04-25T22:26:57.683Z,6.70
2023-04-25T22:29:24.270Z,6.70
2023-04-25T22:31:50.850Z,6.60
2023-04-25T22:34:17.508Z,6.60
2023-04-25T22:36:44.145Z,6.60
2023-04-25T22:39:10.755Z,6.70
2023-04-25T22:41:37.289Z,6.70
2023-04-25T22:44:03.907Z,6.70
2023-04-25T22:46:30.516Z,6.60
2023-04-25T22:48:57.099Z,6.60
2023-04-25T22:51:23.711Z,6.60
2023-04-25T22:53:50.279Z,6.60
2023-04-25T22:56:16.840Z,6.60
2023-04-25T22:58:43.475Z,6.60
2023-04-25T23:01:10.072Z,6.60
2023-04-25T23:03:37.106Z,6.50
2023-04-25T23:06:04.016Z,6.60
2023-04-25T23:08:30.596Z,6.60
2023-04-25T23:10:57.519Z,6.60
2023-04-25T23:13:24.121Z,6.60
2023-04-25T23:15:50.659Z,6.70
2023-04-25T23:18:17.250Z,6.60
2023-04-25T23:20:43.862Z,6.50
2023-04-25T23:23:10.430Z,6.60
2023-04-25T23:25:40.000Z,6.50
2023-04-25T23:28:06.977Z,6.50
2023-04-25T23:30:33.685Z,6.50
2023-04-25T23:33:00.286Z,6.40
2023-04-25T23:35:26.934Z,6.50
2023-04-25T23:37:53.471Z,6.40
2023-04-25T23:40:20.331Z,6.50
2023-04-25T23:42:47.201Z,6.50
2023-04-25T23:45:13.730Z,6.40
2023-04-25T23:47:40.354Z,6.50
2023-04-25T23:50:07.661Z,6.50
2023-04-25T23:52:34.233Z,6.50
2023-04-25T23:55:00.803Z,6.50
2023-04-25T23:57:27.670Z,6.30
2023-04-25T23:59:54.237Z,6.20
